AirNav   Air Wisconsin Up To $57,000 Bonus
 
 1132 users online  

7MN4 Mille Lacs Lake Airport
Garrison, Minnesota, USA

GOING TO GARRISON?


FAA INFORMATION EFFECTIVE 19 MAY 2022

Location

FAA Identifier: 7MN4
Lat/Long: 46-19-09.8540N 093-49-50.9180W
46-19.164233N 093-49.848633W
46.3194039,-93.8308106
(estimated)
Elevation: 1261 ft. / 384.4 m (surveyed)
Variation: 03E (1985)
From city: 2 miles NW of GARRISON, MN
Time zone: UTC -5 (UTC -6 during Standard Time)
Zip code: 56401

Airport Operations

Airport use: Private use. Permission required prior to landing
Activation date: 11/1946
Control tower: no
ARTCC: MINNEAPOLIS CENTER
FSS: PRINCETON FLIGHT SERVICE STATION
Attendance: 0900-1800
Wind indicator: yes
Segmented circle: no

Airport Communications

CTAF: 122.9
WX ASOS at BRD (14 nm W): 126.775 (218-828-3314)
WX AWOS-3 at AIT (15 nm NE): 118.675 (218-927-2101)

Nearby radio navigation aids

NDB name  Hdg/Dist  Freq  Var  ID
LAREW133/11.425103EBR -... .-.
RIPLEY053/25.740403EXCR -..- -.-. .-.

Airport Services

Airframe service: NONE
Powerplant service: NONE

Runway Information

Runway 3/21

Dimensions: 2500 x 50 ft. / 762 x 15 m
Surface: turf
RUNWAY 3  RUNWAY 21
Traffic pattern: leftleft

Runway 9/27

Dimensions: 1250 x 50 ft. / 381 x 15 m
Surface: turf
RUNWAY 9  RUNWAY 27
Traffic pattern: leftleft

Airport Ownership and Management from official FAA records

Ownership: Privately-owned
Owner: WILDWOOD COVE
26778 STATE HIGHWAY 18
BRAINERD, MN 56401-5522
Phone 612-810-7187
Manager: TODD KALEVIK
26778 STATE HIGHWAY 18
BRAINERD, MN 56401-5522
Phone 612-810-7187

Additional Remarks

FOR CD CTC MINNEAPOLIS ARTCC AT 651-463-5588.

Instrument Procedures

There are no published instrument procedures at 7MN4.

Some nearby airports with instrument procedures:

KBRD - Brainerd Lakes Regional Airport (14 nm W)
KAIT - Aitkin Municipal Airport - Steve Kurtz Field (15 nm NE)
KRYM - Ray S Miller Army Airfield (26 nm SW)
KHZX - Isedor Iverson Airport (28 nm NE)
KLXL - Little Falls/Morrison County Airport-Lindbergh Field (31 nm SW)
 
Loc | Ops | Rwys | IFR | FBO | Links
Com | Nav | Svcs | Stats | Notes
Area around 7MN4 (Mille Lacs Lake Airport)
 
Road maps at: MapQuest Bing Google
 
Aerial photo
No photo
 
Sectional chart

 
Airport distance calculator
Flying to Mille Lacs Lake Airport? Find the distance to fly.

From to 7MN4

Sunrise and sunset
Times for 27-May-2022
 Local
(UTC-5)
 Zulu
(UTC)
Morning civil twilight04:5409:54
Sunrise05:3110:31
Sunset20:5401:54
Evening civil twilight21:3102:31

Current date and time
Zulu (UTC)  27-May-2022 23:19:31
Local (UTC-5)  27-May-2022 18:19:31
 
METAR
KBRD 
13nm W 
272253Z AUTO 00000KT 10SM BKN090 27/05 A2978 RMK AO2 SLP084 T02720050 TSNO $
KAIT 
15nm NE 
272255Z AUTO 16008KT 10SM SCT095 24/09 A2979 RMK AO2
KRYM 
26nm SW 
272256Z AUTO 28007KT 10SM CLR 27/06 A2977 RMK AO2 SLP084 T02670056 FZRANO $
TAF
KBRD 
13nm W 
271728Z 2718/2818 21009G17KT P6SM FEW100 FM272200 26005KT P6SM FEW100 FM280900 16005KT P6SM -SHRA VCTS OVC100CB FM281000 15005KT 4SM -SHRA BR VCTS BKN090CB FM281500 12011G21KT 6SM -SHRA OVC022
NOTAMs
Click for the latest NOTAMs
NOTAMs are issued by the DoD/FAA and will open in a separate window not controlled by AirNav.

 

 
 

Would you like to see your business listed on this page?

 If your business provides an interesting product or service to pilots, flight crews, aircraft, or users of the Mille Lacs Lake Airport, you should consider listing it here.  To start the listing process, click on the button below
 
Add a business
 

Other Pages about Mille Lacs Lake Airport

Update a link
 
Copyright © AirNav, LLC. All rights reserved. Privacy Policy  Contact